メインページ
METAR-TAF:

METAR-TAF

空港 :

タシュケント, ウズベキスタン

タシュケント国際空港

緯度: 41-16N, 経度: 069-16E, 海抜: 489m

現時点の気象観測

当レポートは35分前の12:30(UTC)に作成
北/北西の風 4kt、西/北西から東/北東の間で変化する
気温 16°C
湿度 21%
気圧 1016 hPa
視程: 4000m

METAR: UTTT 241230Z 34004KT 290V070 4000 FU NSC 16/M06 Q1016 R08R/CLRD70 NOSIG

時間: 18:05 (13:05 UTC)

予報

当レポートは2時間5分前の11:00(UTC)に作成
予報は24日の 12時(UTC)から 25日の 12時(UTC)まで有効
東/北東の風 12kt
視程: 6000m
高度5000ftの雲は散在している, 積乱雲.
高度10000ftの千切れ雲あり
24日の 15時(UTC)から 25日の 03時(UTC)まで一時的に
視程: 3000m
靄, 煙
25日の 06時(UTC)から 25日の 07時(UTC)まで徐々に
北/北西の風 10kt、最大20ktの突風を伴う
高度4000ftの千切れ雲あり, 積乱雲.
25日の 07時(UTC)から 25日の 12時(UTC)まで一時的に
視程: 3000m
高度3000ftの千切れ雲あり, 積乱雲.
弱いにわか雨, 靄

TAF: UTTT 241100Z 2412/2512 06012KT 6000 SCT050CB BKN100 TEMPO 2415/2503 3000 BR FU BECMG 2506/2507 33010G20KT BKN040CB TEMPO 2507/2512 3000 -SHRA BR BKN030CB

4,000以上の空港の気象観測と天気予報(METAR報とTAF報)

利用可能な観測所は地図上に黄色い丸と赤い丸で示す。

丸の上にカーソルを重ねると観測所名を参照できる。

次にクリックすると気象観測と天気予報を参照できる。

マップの切り替え:黒色「×」印の緑ボタンをクリックして拡大、「-」印の緑ボタンをクリックして縮小、緑色の三角印をクリックして隣りの地図に切り替え


METAR-TAF: